sensor_id;sensor_type;location;lat;lon;timestamp;P1;durP1;ratioP1;P2;durP2;ratioP2
32297;SDS011;18782;48.984;8.548;2022-09-01T00:01:45;12.90;;;8.50;;
32297;SDS011;18782;48.984;8.548;2022-09-01T00:04:15;9.10;;;7.60;;
32297;SDS011;18782;48.984;8.548;2022-09-01T00:06:45;8.23;;;7.10;;
32297;SDS011;18782;48.984;8.548;2022-09-01T00:09:14;9.05;;;7.47;;
32297;SDS011;18782;48.984;8.548;2022-09-01T00:11:45;7.60;;;6.90;;
32297;SDS011;18782;48.984;8.548;2022-09-01T00:14:17;7.38;;;6.63;;
32297;SDS011;18782;48.984;8.548;2022-09-01T00:16:56;7.82;;;7.03;;
32297;SDS011;18782;48.984;8.548;2022-09-01T00:19:24;7.20;;;5.85;;
32297;SDS011;18782;48.984;8.548;2022-09-01T00:21:52;5.70;;;5.20;;
32297;SDS011;18782;48.984;8.548;2022-09-01T00:24:20;5.72;;;4.93;;
32297;SDS011;18782;48.984;8.548;2022-09-01T00:26:48;7.47;;;4.90;;
32297;SDS011;18782;48.984;8.548;2022-09-01T00:29:17;6.28;;;5.05;;
32297;SDS011;18782;48.984;8.548;2022-09-01T00:31:46;5.78;;;5.28;;
32297;SDS011;18782;48.984;8.548;2022-09-01T00:34:14;6.28;;;5.63;;
32297;SDS011;18782;48.984;8.548;2022-09-01T00:36:42;7.93;;;5.78;;
32297;SDS011;18782;48.984;8.548;2022-09-01T00:39:12;10.15;;;7.57;;
32297;SDS011;18782;48.984;8.548;2022-09-01T00:41:41;7.05;;;6.38;;
32297;SDS011;18782;48.984;8.548;2022-09-01T00:44:11;8.23;;;7.15;;
32297;SDS011;18782;48.984;8.548;2022-09-01T00:46:42;8.02;;;6.63;;
32297;SDS011;18782;48.984;8.548;2022-09-01T00:49:16;13.13;;;8.02;;
32297;SDS011;18782;48.984;8.548;2022-09-01T00:51:48;7.68;;;6.57;;
32297;SDS011;18782;48.984;8.548;2022-09-01T00:54:20;8.80;;;6.47;;
32297;SDS011;18782;48.984;8.548;2022-09-01T00:56:50;8.57;;;6.10;;
32297;SDS011;18782;48.984;8.548;2022-09-01T00:59:23;7.03;;;6.20;;
32297;SDS011;18782;48.984;8.548;2022-09-01T01:01:55;7.90;;;7.10;;
32297;SDS011;18782;48.984;8.548;2022-09-01T01:04:23;8.68;;;6.07;;
32297;SDS011;18782;48.984;8.548;2022-09-01T01:06:51;8.88;;;5.63;;
32297;SDS011;18782;48.984;8.548;2022-09-01T01:09:28;8.88;;;6.50;;
32297;SDS011;18782;48.984;8.548;2022-09-01T01:11:59;8.63;;;5.78;;
32297;SDS011;18782;48.984;8.548;2022-09-01T01:14:30;9.48;;;6.15;;
32297;SDS011;18782;48.984;8.548;2022-09-01T01:16:59;7.50;;;6.43;;
32297;SDS011;18782;48.984;8.548;2022-09-01T01:19:30;7.20;;;6.28;;
32297;SDS011;18782;48.984;8.548;2022-09-01T01:22:27;8.93;;;5.90;;
32297;SDS011;18782;48.984;8.548;2022-09-01T01:25:20;7.63;;;5.90;;
32297;SDS011;18782;48.984;8.548;2022-09-01T01:27:49;6.53;;;5.93;;
32297;SDS011;18782;48.984;8.548;2022-09-01T01:30:18;6.97;;;6.10;;
32297;SDS011;18782;48.984;8.548;2022-09-01T01:32:46;8.38;;;6.63;;
32297;SDS011;18782;48.984;8.548;2022-09-01T01:35:15;8.77;;;6.50;;
32297;SDS011;18782;48.984;8.548;2022-09-01T01:37:46;8.52;;;6.80;;
32297;SDS011;18782;48.984;8.548;2022-09-01T01:40:17;7.30;;;5.93;;
32297;SDS011;18782;48.984;8.548;2022-09-01T01:42:49;7.97;;;6.25;;
32297;SDS011;18782;48.984;8.548;2022-09-01T01:45:19;7.13;;;6.40;;
32297;SDS011;18782;48.984;8.548;2022-09-01T01:47:49;7.15;;;5.75;;
32297;SDS011;18782;48.984;8.548;2022-09-01T01:50:21;7.70;;;7.00;;
32297;SDS011;18782;48.984;8.548;2022-09-01T01:52:51;6.80;;;6.18;;
32297;SDS011;18782;48.984;8.548;2022-09-01T01:55:24;9.80;;;7.43;;
32297;SDS011;18782;48.984;8.548;2022-09-01T01:57:57;9.77;;;6.97;;
32297;SDS011;18782;48.984;8.548;2022-09-01T02:00:26;7.85;;;7.05;;
32297;SDS011;18782;48.984;8.548;2022-09-01T02:03:00;8.02;;;7.22;;
32297;SDS011;18782;48.984;8.548;2022-09-01T02:05:29;7.55;;;6.85;;
32297;SDS011;18782;48.984;8.548;2022-09-01T02:07:59;6.97;;;6.28;;
32297;SDS011;18782;48.984;8.548;2022-09-01T02:10:31;9.63;;;7.00;;
32297;SDS011;18782;48.984;8.548;2022-09-01T02:13:03;8.35;;;6.32;;
32297;SDS011;18782;48.984;8.548;2022-09-01T02:15:33;6.72;;;6.13;;
32297;SDS011;18782;48.984;8.548;2022-09-01T02:18:09;8.18;;;6.05;;
32297;SDS011;18782;48.984;8.548;2022-09-01T02:20:39;6.80;;;6.10;;
32297;SDS011;18782;48.984;8.548;2022-09-01T02:23:07;6.72;;;6.10;;
32297;SDS011;18782;48.984;8.548;2022-09-01T02:25:37;7.53;;;6.68;;
32297;SDS011;18782;48.984;8.548;2022-09-01T02:28:33;6.30;;;5.63;;
32297;SDS011;18782;48.984;8.548;2022-09-01T02:31:08;8.65;;;6.18;;
32297;SDS011;18782;48.984;8.548;2022-09-01T02:33:38;6.80;;;6.10;;
32297;SDS011;18782;48.984;8.548;2022-09-01T02:36:10;10.27;;;6.70;;
32297;SDS011;18782;48.984;8.548;2022-09-01T02:38:40;6.82;;;6.18;;
32297;SDS011;18782;48.984;8.548;2022-09-01T02:41:19;7.72;;;6.85;;
32297;SDS011;18782;48.984;8.548;2022-09-01T02:43:49;7.13;;;5.90;;
32297;SDS011;18782;48.984;8.548;2022-09-01T02:46:17;8.63;;;6.25;;
32297;SDS011;18782;48.984;8.548;2022-09-01T02:48:50;6.40;;;5.78;;
32297;SDS011;18782;48.984;8.548;2022-09-01T02:51:21;6.68;;;5.97;;
32297;SDS011;18782;48.984;8.548;2022-09-01T02:53:51;7.18;;;6.50;;
32297;SDS011;18782;48.984;8.548;2022-09-01T02:56:21;10.15;;;6.43;;
32297;SDS011;18782;48.984;8.548;2022-09-01T02:58:54;6.97;;;6.25;;
32297;SDS011;18782;48.984;8.548;2022-09-01T03:01:24;6.95;;;6.35;;
32297;SDS011;18782;48.984;8.548;2022-09-01T03:03:56;8.15;;;6.40;;
32297;SDS011;18782;48.984;8.548;2022-09-01T03:06:27;7.20;;;6.50;;
32297;SDS011;18782;48.984;8.548;2022-09-01T03:08:59;6.82;;;5.88;;
32297;SDS011;18782;48.984;8.548;2022-09-01T03:11:31;6.70;;;6.10;;
32297;SDS011;18782;48.984;8.548;2022-09-01T03:14:02;6.38;;;5.78;;
32297;SDS011;18782;48.984;8.548;2022-09-01T03:16:30;6.80;;;5.32;;
32297;SDS011;18782;48.984;8.548;2022-09-01T03:18:59;5.93;;;5.32;;
32297;SDS011;18782;48.984;8.548;2022-09-01T03:21:28;6.15;;;5.35;;
32297;SDS011;18782;48.984;8.548;2022-09-01T03:23:57;8.55;;;5.57;;
32297;SDS011;18782;48.984;8.548;2022-09-01T03:26:27;5.97;;;5.38;;
32297;SDS011;18782;48.984;8.548;2022-09-01T03:28:55;5.55;;;4.70;;
32297;SDS011;18782;48.984;8.548;2022-09-01T03:31:25;5.78;;;5.20;;
32297;SDS011;18782;48.984;8.548;2022-09-01T03:33:58;5.70;;;4.93;;
32297;SDS011;18782;48.984;8.548;2022-09-01T03:36:29;7.50;;;5.30;;
32297;SDS011;18782;48.984;8.548;2022-09-01T03:38:58;5.90;;;5.10;;
32297;SDS011;18782;48.984;8.548;2022-09-01T03:41:30;5.20;;;4.70;;
32297;SDS011;18782;48.984;8.548;2022-09-01T03:43:58;5.72;;;4.30;;
32297;SDS011;18782;48.984;8.548;2022-09-01T03:46:31;5.82;;;5.22;;
32297;SDS011;18782;48.984;8.548;2022-09-01T03:49:03;5.63;;;4.53;;
32297;SDS011;18782;48.984;8.548;2022-09-01T03:51:34;6.18;;;5.28;;
32297;SDS011;18782;48.984;8.548;2022-09-01T03:54:04;6.65;;;4.97;;
32297;SDS011;18782;48.984;8.548;2022-09-01T03:56:33;5.28;;;4.55;;
32297;SDS011;18782;48.984;8.548;2022-09-01T03:59:01;5.43;;;4.93;;
32297;SDS011;18782;48.984;8.548;2022-09-01T04:01:34;6.35;;;5.38;;
32297;SDS011;18782;48.984;8.548;2022-09-01T04:04:05;6.35;;;5.38;;
32297;SDS011;18782;48.984;8.548;2022-09-01T04:06:33;5.38;;;4.90;;
32297;SDS011;18782;48.984;8.548;2022-09-01T04:09:00;6.38;;;4.97;;
32297;SDS011;18782;48.984;8.548;2022-09-01T04:11:33;8.30;;;5.18;;
32297;SDS011;18782;48.984;8.548;2022-09-01T04:14:01;6.63;;;5.03;;
32297;SDS011;18782;48.984;8.548;2022-09-01T04:16:34;5.90;;;5.10;;
32297;SDS011;18782;48.984;8.548;2022-09-01T04:19:22;8.75;;;5.60;;
32297;SDS011;18782;48.984;8.548;2022-09-01T04:21:55;17.63;;;7.65;;
32297;SDS011;18782;48.984;8.548;2022-09-01T04:24:29;24.90;;;8.32;;
32297;SDS011;18782;48.984;8.548;2022-09-01T04:26:59;9.93;;;6.50;;
32297;SDS011;18782;48.984;8.548;2022-09-01T04:29:28;6.50;;;5.82;;
32297;SDS011;18782;48.984;8.548;2022-09-01T04:31:59;9.32;;;6.75;;
32297;SDS011;18782;48.984;8.548;2022-09-01T04:34:30;6.72;;;5.53;;
32297;SDS011;18782;48.984;8.548;2022-09-01T04:37:05;10.00;;;6.55;;
32297;SDS011;18782;48.984;8.548;2022-09-01T04:39:35;8.88;;;6.25;;
32297;SDS011;18782;48.984;8.548;2022-09-01T04:42:04;9.23;;;6.50;;
32297;SDS011;18782;48.984;8.548;2022-09-01T04:44:34;9.00;;;6.72;;
32297;SDS011;18782;48.984;8.548;2022-09-01T04:47:05;12.38;;;6.20;;
32297;SDS011;18782;48.984;8.548;2022-09-01T04:49:37;8.82;;;7.05;;
32297;SDS011;18782;48.984;8.548;2022-09-01T04:52:05;8.00;;;6.43;;
32297;SDS011;18782;48.984;8.548;2022-09-01T04:54:33;8.13;;;6.15;;
32297;SDS011;18782;48.984;8.548;2022-09-01T04:57:02;7.03;;;6.32;;
32297;SDS011;18782;48.984;8.548;2022-09-01T04:59:34;8.07;;;6.78;;
32297;SDS011;18782;48.984;8.548;2022-09-01T05:02:02;13.43;;;6.20;;
32297;SDS011;18782;48.984;8.548;2022-09-01T05:04:35;9.80;;;7.13;;
32297;SDS011;18782;48.984;8.548;2022-09-01T05:07:11;9.43;;;7.07;;
32297;SDS011;18782;48.984;8.548;2022-09-01T05:09:39;8.95;;;6.47;;
32297;SDS011;18782;48.984;8.548;2022-09-01T05:12:26;7.35;;;6.55;;
32297;SDS011;18782;48.984;8.548;2022-09-01T05:14:54;8.45;;;5.78;;
32297;SDS011;18782;48.984;8.548;2022-09-01T05:17:22;6.47;;;5.75;;
32297;SDS011;18782;48.984;8.548;2022-09-01T05:19:53;9.88;;;6.20;;
32297;SDS011;18782;48.984;8.548;2022-09-01T05:22:22;7.95;;;6.70;;
32297;SDS011;18782;48.984;8.548;2022-09-01T05:24:55;10.23;;;7.00;;
32297;SDS011;18782;48.984;8.548;2022-09-01T05:27:28;9.98;;;7.47;;
32297;SDS011;18782;48.984;8.548;2022-09-01T05:29:56;7.57;;;6.30;;
32297;SDS011;18782;48.984;8.548;2022-09-01T05:32:25;7.70;;;6.80;;
32297;SDS011;18782;48.984;8.548;2022-09-01T05:34:55;10.35;;;7.70;;
32297;SDS011;18782;48.984;8.548;2022-09-01T05:37:23;12.55;;;11.15;;
32297;SDS011;18782;48.984;8.548;2022-09-01T05:39:54;11.35;;;10.05;;
32297;SDS011;18782;48.984;8.548;2022-09-01T05:42:22;13.15;;;11.10;;
32297;SDS011;18782;48.984;8.548;2022-09-01T05:44:50;18.02;;;12.88;;
32297;SDS011;18782;48.984;8.548;2022-09-01T05:47:18;13.75;;;12.15;;
32297;SDS011;18782;48.984;8.548;2022-09-01T05:49:49;16.95;;;12.30;;
32297;SDS011;18782;48.984;8.548;2022-09-01T05:52:20;13.68;;;12.25;;
32297;SDS011;18782;48.984;8.548;2022-09-01T05:54:52;17.52;;;13.80;;
32297;SDS011;18782;48.984;8.548;2022-09-01T05:57:25;16.08;;;13.73;;
32297;SDS011;18782;48.984;8.548;2022-09-01T06:00:01;12.60;;;10.68;;
32297;SDS011;18782;48.984;8.548;2022-09-01T06:02:38;18.60;;;13.93;;
32297;SDS011;18782;48.984;8.548;2022-09-01T06:05:07;19.08;;;14.20;;
32297;SDS011;18782;48.984;8.548;2022-09-01T06:07:38;15.52;;;13.45;;
32297;SDS011;18782;48.984;8.548;2022-09-01T06:10:06;14.85;;;13.20;;
32297;SDS011;18782;48.984;8.548;2022-09-01T06:12:34;17.08;;;13.50;;
32297;SDS011;18782;48.984;8.548;2022-09-01T06:15:02;17.35;;;13.15;;
32297;SDS011;18782;48.984;8.548;2022-09-01T06:17:34;15.82;;;12.95;;
32297;SDS011;18782;48.984;8.548;2022-09-01T06:20:03;14.45;;;12.57;;
32297;SDS011;18782;48.984;8.548;2022-09-01T06:22:41;14.20;;;11.55;;
32297;SDS011;18782;48.984;8.548;2022-09-01T06:25:10;13.02;;;10.85;;
32297;SDS011;18782;48.984;8.548;2022-09-01T06:27:41;13.98;;;11.75;;
32297;SDS011;18782;48.984;8.548;2022-09-01T06:30:10;15.65;;;12.88;;
32297;SDS011;18782;48.984;8.548;2022-09-01T06:32:58;15.10;;;13.60;;
32297;SDS011;18782;48.984;8.548;2022-09-01T06:35:27;12.80;;;11.50;;
32297;SDS011;18782;48.984;8.548;2022-09-01T06:37:58;11.98;;;10.77;;
32297;SDS011;18782;48.984;8.548;2022-09-01T06:40:35;14.15;;;12.65;;
32297;SDS011;18782;48.984;8.548;2022-09-01T06:43:05;14.57;;;10.75;;
32297;SDS011;18782;48.984;8.548;2022-09-01T06:45:38;16.00;;;11.15;;
32297;SDS011;18782;48.984;8.548;2022-09-01T06:48:07;13.85;;;12.35;;
32297;SDS011;18782;48.984;8.548;2022-09-01T06:50:41;14.02;;;10.95;;
32297;SDS011;18782;48.984;8.548;2022-09-01T06:53:32;14.15;;;11.30;;
32297;SDS011;18782;48.984;8.548;2022-09-01T06:56:04;13.85;;;11.45;;
32297;SDS011;18782;48.984;8.548;2022-09-01T06:58:33;13.68;;;11.98;;
32297;SDS011;18782;48.984;8.548;2022-09-01T07:01:04;12.00;;;9.57;;
32297;SDS011;18782;48.984;8.548;2022-09-01T07:03:33;13.75;;;9.85;;
32297;SDS011;18782;48.984;8.548;2022-09-01T07:06:13;10.82;;;9.65;;
32297;SDS011;18782;48.984;8.548;2022-09-01T07:09:18;12.53;;;11.23;;
32297;SDS011;18782;48.984;8.548;2022-09-01T07:12:13;13.10;;;10.48;;
32297;SDS011;18782;48.984;8.548;2022-09-01T07:14:53;14.35;;;11.73;;
32297;SDS011;18782;48.984;8.548;2022-09-01T07:17:42;10.98;;;9.65;;
32297;SDS011;18782;48.984;8.548;2022-09-01T07:20:16;11.55;;;9.55;;
32297;SDS011;18782;48.984;8.548;2022-09-01T07:22:51;12.13;;;9.15;;
32297;SDS011;18782;48.984;8.548;2022-09-01T07:25:38;10.32;;;9.32;;
32297;SDS011;18782;48.984;8.548;2022-09-01T07:28:31;13.68;;;9.57;;
32297;SDS011;18782;48.984;8.548;2022-09-01T07:31:19;12.32;;;10.55;;
32297;SDS011;18782;48.984;8.548;2022-09-01T07:34:10;11.38;;;10.15;;
32297;SDS011;18782;48.984;8.548;2022-09-01T07:37:01;13.20;;;10.23;;
32297;SDS011;18782;48.984;8.548;2022-09-01T07:39:50;11.35;;;10.15;;
32297;SDS011;18782;48.984;8.548;2022-09-01T07:45:43;11.80;;;9.63;;
32297;SDS011;18782;48.984;8.548;2022-09-01T07:48:24;11.63;;;9.57;;
32297;SDS011;18782;48.984;8.548;2022-09-01T07:51:14;11.82;;;9.45;;
32297;SDS011;18782;48.984;8.548;2022-09-01T07:54:02;10.65;;;8.45;;
32297;SDS011;18782;48.984;8.548;2022-09-01T07:56:31;10.95;;;8.90;;
32297;SDS011;18782;48.984;8.548;2022-09-01T07:59:07;11.35;;;9.23;;
32297;SDS011;18782;48.984;8.548;2022-09-01T08:01:48;9.10;;;8.15;;
32297;SDS011;18782;48.984;8.548;2022-09-01T08:04:18;11.25;;;9.18;;
32297;SDS011;18782;48.984;8.548;2022-09-01T08:06:48;10.57;;;9.02;;
32297;SDS011;18782;48.984;8.548;2022-09-01T08:09:17;13.90;;;10.13;;
32297;SDS011;18782;48.984;8.548;2022-09-01T08:11:58;10.38;;;9.25;;
32297;SDS011;18782;48.984;8.548;2022-09-01T08:14:32;10.82;;;9.40;;
32297;SDS011;18782;48.984;8.548;2022-09-01T08:17:00;10.02;;;8.23;;
32297;SDS011;18782;48.984;8.548;2022-09-01T08:19:49;9.57;;;8.50;;
32297;SDS011;18782;48.984;8.548;2022-09-01T08:22:31;8.48;;;7.22;;
32297;SDS011;18782;48.984;8.548;2022-09-01T08:27:33;9.60;;;7.85;;
32297;SDS011;18782;48.984;8.548;2022-09-01T08:30:06;9.32;;;7.45;;
32297;SDS011;18782;48.984;8.548;2022-09-01T08:32:38;9.02;;;8.00;;
32297;SDS011;18782;48.984;8.548;2022-09-01T08:35:08;8.23;;;6.97;;
32297;SDS011;18782;48.984;8.548;2022-09-01T08:37:36;8.02;;;7.03;;
32297;SDS011;18782;48.984;8.548;2022-09-01T08:40:06;7.82;;;7.03;;
32297;SDS011;18782;48.984;8.548;2022-09-01T08:42:38;8.93;;;6.40;;
32297;SDS011;18782;48.984;8.548;2022-09-01T08:45:20;5.60;;;5.10;;
32297;SDS011;18782;48.984;8.548;2022-09-01T08:47:51;7.40;;;6.47;;
32297;SDS011;18782;48.984;8.548;2022-09-01T08:50:41;6.55;;;5.93;;
32297;SDS011;18782;48.984;8.548;2022-09-01T08:53:30;9.35;;;6.40;;
32297;SDS011;18782;48.984;8.548;2022-09-01T08:56:03;6.15;;;5.55;;
32297;SDS011;18782;48.984;8.548;2022-09-01T08:58:31;6.55;;;5.00;;
32297;SDS011;18782;48.984;8.548;2022-09-01T09:01:22;6.80;;;5.18;;
32297;SDS011;18782;48.984;8.548;2022-09-01T09:04:02;6.32;;;5.70;;
32297;SDS011;18782;48.984;8.548;2022-09-01T09:06:40;6.80;;;5.68;;
32297;SDS011;18782;48.984;8.548;2022-09-01T09:09:20;6.18;;;5.57;;
32297;SDS011;18782;48.984;8.548;2022-09-01T09:12:09;7.05;;;5.65;;
32297;SDS011;18782;48.984;8.548;2022-09-01T09:14:57;6.43;;;5.70;;
32297;SDS011;18782;48.984;8.548;2022-09-01T09:17:39;5.07;;;4.50;;
32297;SDS011;18782;48.984;8.548;2022-09-01T09:20:11;5.75;;;4.32;;
32297;SDS011;18782;48.984;8.548;2022-09-01T09:22:47;4.53;;;3.90;;
32297;SDS011;18782;48.984;8.548;2022-09-01T09:25:15;5.38;;;3.95;;
32297;SDS011;18782;48.984;8.548;2022-09-01T09:27:45;4.30;;;3.85;;
32297;SDS011;18782;48.984;8.548;2022-09-01T09:30:18;3.85;;;3.10;;
32297;SDS011;18782;48.984;8.548;2022-09-01T09:32:50;5.03;;;3.25;;
32297;SDS011;18782;48.984;8.548;2022-09-01T09:35:41;4.78;;;3.60;;
32297;SDS011;18782;48.984;8.548;2022-09-01T09:38:18;4.95;;;3.75;;
32297;SDS011;18782;48.984;8.548;2022-09-01T09:43:46;3.45;;;3.15;;
32297;SDS011;18782;48.984;8.548;2022-09-01T09:46:22;4.07;;;3.47;;
32297;SDS011;18782;48.984;8.548;2022-09-01T09:49:12;4.20;;;3.80;;
32297;SDS011;18782;48.984;8.548;2022-09-01T09:52:11;3.63;;;3.20;;
32297;SDS011;18782;48.984;8.548;2022-09-01T09:54:56;5.85;;;3.58;;
32297;SDS011;18782;48.984;8.548;2022-09-01T09:57:26;4.75;;;2.80;;
32297;SDS011;18782;48.984;8.548;2022-09-01T09:59:57;4.93;;;3.85;;
32297;SDS011;18782;48.984;8.548;2022-09-01T10:02:38;4.30;;;3.72;;
32297;SDS011;18782;48.984;8.548;2022-09-01T10:05:22;3.65;;;3.10;;
32297;SDS011;18782;48.984;8.548;2022-09-01T10:07:56;3.65;;;3.20;;
32297;SDS011;18782;48.984;8.548;2022-09-01T10:10:26;5.18;;;3.38;;
32297;SDS011;18782;48.984;8.548;2022-09-01T10:12:56;3.83;;;3.42;;
32297;SDS011;18782;48.984;8.548;2022-09-01T10:15:28;4.30;;;3.58;;
32297;SDS011;18782;48.984;8.548;2022-09-01T10:20:53;4.10;;;3.22;;
32297;SDS011;18782;48.984;8.548;2022-09-01T10:23:26;4.28;;;3.25;;
32297;SDS011;18782;48.984;8.548;2022-09-01T10:25:57;4.90;;;3.45;;
32297;SDS011;18782;48.984;8.548;2022-09-01T10:28:31;3.65;;;3.10;;
32297;SDS011;18782;48.984;8.548;2022-09-01T10:31:03;5.05;;;3.08;;
32297;SDS011;18782;48.984;8.548;2022-09-01T10:33:34;3.00;;;2.70;;
32297;SDS011;18782;48.984;8.548;2022-09-01T10:36:03;3.40;;;3.10;;
32297;SDS011;18782;48.984;8.548;2022-09-01T10:38:33;3.40;;;2.80;;
32297;SDS011;18782;48.984;8.548;2022-09-01T10:41:01;5.13;;;3.47;;
32297;SDS011;18782;48.984;8.548;2022-09-01T10:43:41;3.95;;;3.00;;
32297;SDS011;18782;48.984;8.548;2022-09-01T10:49:18;4.00;;;2.85;;
32297;SDS011;18782;48.984;8.548;2022-09-01T10:51:55;5.85;;;3.55;;
32297;SDS011;18782;48.984;8.548;2022-09-01T10:54:51;3.33;;;3.00;;
32297;SDS011;18782;48.984;8.548;2022-09-01T10:57:34;4.43;;;3.03;;
32297;SDS011;18782;48.984;8.548;2022-09-01T11:09:39;4.32;;;3.63;;
32297;SDS011;18782;48.984;8.548;2022-09-01T11:15:33;3.75;;;3.35;;
32297;SDS011;18782;48.984;8.548;2022-09-01T11:18:07;3.63;;;3.33;;
32297;SDS011;18782;48.984;8.548;2022-09-01T11:20:37;3.67;;;3.00;;
32297;SDS011;18782;48.984;8.548;2022-09-01T11:23:09;4.35;;;3.22;;
32297;SDS011;18782;48.984;8.548;2022-09-01T11:25:42;3.85;;;2.70;;
32297;SDS011;18782;48.984;8.548;2022-09-01T11:28:42;4.57;;;3.10;;
32297;SDS011;18782;48.984;8.548;2022-09-01T11:31:13;4.70;;;3.38;;
32297;SDS011;18782;48.984;8.548;2022-09-01T11:34:10;5.15;;;3.85;;
32297;SDS011;18782;48.984;8.548;2022-09-01T11:36:51;4.30;;;2.72;;
32297;SDS011;18782;48.984;8.548;2022-09-01T11:39:31;2.70;;;2.03;;
32297;SDS011;18782;48.984;8.548;2022-09-01T11:42:06;4.75;;;2.50;;
32297;SDS011;18782;48.984;8.548;2022-09-01T11:44:40;3.25;;;2.95;;
32297;SDS011;18782;48.984;8.548;2022-09-01T11:47:14;2.95;;;2.35;;
32297;SDS011;18782;48.984;8.548;2022-09-01T11:49:48;3.20;;;2.90;;
32297;SDS011;18782;48.984;8.548;2022-09-01T11:52:20;3.15;;;2.80;;
32297;SDS011;18782;48.984;8.548;2022-09-01T11:54:49;2.55;;;2.20;;
32297;SDS011;18782;48.984;8.548;2022-09-01T11:57:23;2.70;;;2.28;;
32297;SDS011;18782;48.984;8.548;2022-09-01T11:59:58;2.97;;;2.67;;
32297;SDS011;18782;48.984;8.548;2022-09-01T12:02:40;2.95;;;2.58;;
32297;SDS011;18782;48.984;8.548;2022-09-01T12:05:22;3.10;;;2.78;;
32297;SDS011;18782;48.984;8.548;2022-09-01T12:07:53;2.33;;;2.10;;
32297;SDS011;18782;48.984;8.548;2022-09-01T12:10:23;3.13;;;2.17;;
32297;SDS011;18782;48.984;8.548;2022-09-01T12:13:02;2.78;;;2.38;;
32297;SDS011;18782;48.984;8.548;2022-09-01T12:15:32;2.13;;;1.92;;
32297;SDS011;18782;48.984;8.548;2022-09-01T12:18:08;2.92;;;2.50;;
32297;SDS011;18782;48.984;8.548;2022-09-01T12:20:39;3.20;;;2.40;;
32297;SDS011;18782;48.984;8.548;2022-09-01T12:23:17;2.38;;;1.90;;
32297;SDS011;18782;48.984;8.548;2022-09-01T12:25:50;3.83;;;2.38;;
32297;SDS011;18782;48.984;8.548;2022-09-01T12:28:22;2.17;;;1.98;;
32297;SDS011;18782;48.984;8.548;2022-09-01T12:30:55;3.63;;;2.30;;
32297;SDS011;18782;48.984;8.548;2022-09-01T12:33:25;2.88;;;2.00;;
32297;SDS011;18782;48.984;8.548;2022-09-01T12:38:39;3.17;;;2.30;;
32297;SDS011;18782;48.984;8.548;2022-09-01T12:41:21;3.53;;;2.42;;
32297;SDS011;18782;48.984;8.548;2022-09-01T12:43:51;2.60;;;2.00;;
32297;SDS011;18782;48.984;8.548;2022-09-01T12:46:40;3.50;;;1.98;;
32297;SDS011;18782;48.984;8.548;2022-09-01T12:49:15;2.85;;;2.22;;
32297;SDS011;18782;48.984;8.548;2022-09-01T12:51:44;3.30;;;1.97;;
32297;SDS011;18782;48.984;8.548;2022-09-01T12:54:14;2.30;;;2.10;;
32297;SDS011;18782;48.984;8.548;2022-09-01T12:56:46;2.08;;;1.67;;
32297;SDS011;18782;48.984;8.548;2022-09-01T12:59:21;2.47;;;1.77;;
32297;SDS011;18782;48.984;8.548;2022-09-01T13:04:52;3.92;;;1.70;;
32297;SDS011;18782;48.984;8.548;2022-09-01T13:07:20;2.28;;;1.60;;
32297;SDS011;18782;48.984;8.548;2022-09-01T13:09:47;2.13;;;1.45;;
32297;SDS011;18782;48.984;8.548;2022-09-01T13:12:16;2.22;;;1.52;;
32297;SDS011;18782;48.984;8.548;2022-09-01T13:14:46;3.60;;;1.60;;
32297;SDS011;18782;48.984;8.548;2022-09-01T13:17:14;2.15;;;1.38;;
32297;SDS011;18782;48.984;8.548;2022-09-01T13:19:42;4.30;;;1.73;;
32297;SDS011;18782;48.984;8.548;2022-09-01T13:22:10;2.03;;;1.45;;
32297;SDS011;18782;48.984;8.548;2022-09-01T13:24:38;2.22;;;1.50;;
32297;SDS011;18782;48.984;8.548;2022-09-01T13:27:06;5.07;;;2.63;;
32297;SDS011;18782;48.984;8.548;2022-09-01T13:29:50;4.53;;;1.83;;
32297;SDS011;18782;48.984;8.548;2022-09-01T13:32:18;2.58;;;1.50;;
32297;SDS011;18782;48.984;8.548;2022-09-01T13:34:49;2.10;;;1.52;;
32297;SDS011;18782;48.984;8.548;2022-09-01T13:37:19;3.93;;;2.00;;
32297;SDS011;18782;48.984;8.548;2022-09-01T13:39:48;1.90;;;1.45;;
32297;SDS011;18782;48.984;8.548;2022-09-01T13:42:16;2.05;;;1.40;;
32297;SDS011;18782;48.984;8.548;2022-09-01T13:44:44;1.95;;;1.40;;
32297;SDS011;18782;48.984;8.548;2022-09-01T13:47:19;2.55;;;2.13;;
32297;SDS011;18782;48.984;8.548;2022-09-01T13:49:55;3.05;;;1.70;;
32297;SDS011;18782;48.984;8.548;2022-09-01T13:52:34;2.38;;;1.70;;
32297;SDS011;18782;48.984;8.548;2022-09-01T13:55:03;1.70;;;1.60;;
32297;SDS011;18782;48.984;8.548;2022-09-01T13:57:31;1.45;;;1.25;;
32297;SDS011;18782;48.984;8.548;2022-09-01T14:00:03;2.17;;;1.63;;
32297;SDS011;18782;48.984;8.548;2022-09-01T14:02:36;2.58;;;1.30;;
32297;SDS011;18782;48.984;8.548;2022-09-01T14:05:05;1.80;;;1.20;;
32297;SDS011;18782;48.984;8.548;2022-09-01T14:07:33;1.15;;;1.05;;
32297;SDS011;18782;48.984;8.548;2022-09-01T14:10:02;22.33;;;6.32;;
32297;SDS011;18782;48.984;8.548;2022-09-01T14:12:30;4.47;;;1.95;;
32297;SDS011;18782;48.984;8.548;2022-09-01T14:14:57;7.30;;;2.63;;
32297;SDS011;18782;48.984;8.548;2022-09-01T14:17:46;7.68;;;2.50;;
32297;SDS011;18782;48.984;8.548;2022-09-01T14:20:15;5.57;;;2.42;;
32297;SDS011;18782;48.984;8.548;2022-09-01T14:22:44;4.35;;;2.22;;
32297;SDS011;18782;48.984;8.548;2022-09-01T14:25:12;3.33;;;2.17;;
32297;SDS011;18782;48.984;8.548;2022-09-01T14:27:41;4.28;;;2.20;;
32297;SDS011;18782;48.984;8.548;2022-09-01T14:30:11;5.13;;;1.90;;
32297;SDS011;18782;48.984;8.548;2022-09-01T14:32:41;2.35;;;1.30;;
32297;SDS011;18782;48.984;8.548;2022-09-01T14:35:10;2.42;;;1.58;;
32297;SDS011;18782;48.984;8.548;2022-09-01T14:37:38;3.45;;;1.63;;
32297;SDS011;18782;48.984;8.548;2022-09-01T14:40:08;1.77;;;1.17;;
32297;SDS011;18782;48.984;8.548;2022-09-01T14:42:42;1.00;;;0.90;;
32297;SDS011;18782;48.984;8.548;2022-09-01T14:45:14;1.90;;;1.10;;
32297;SDS011;18782;48.984;8.548;2022-09-01T14:47:43;2.95;;;1.10;;
32297;SDS011;18782;48.984;8.548;2022-09-01T14:50:13;3.00;;;1.20;;
32297;SDS011;18782;48.984;8.548;2022-09-01T14:52:47;3.35;;;1.85;;
32297;SDS011;18782;48.984;8.548;2022-09-01T14:55:17;3.88;;;1.58;;
32297;SDS011;18782;48.984;8.548;2022-09-01T14:57:45;1.30;;;1.20;;
32297;SDS011;18782;48.984;8.548;2022-09-01T15:00:13;1.70;;;1.40;;
32297;SDS011;18782;48.984;8.548;2022-09-01T15:02:42;2.28;;;1.23;;
32297;SDS011;18782;48.984;8.548;2022-09-01T15:05:11;3.03;;;1.33;;
32297;SDS011;18782;48.984;8.548;2022-09-01T15:07:41;1.52;;;1.30;;
32297;SDS011;18782;48.984;8.548;2022-09-01T15:10:10;1.60;;;1.50;;
32297;SDS011;18782;48.984;8.548;2022-09-01T15:12:50;1.58;;;1.30;;
32297;SDS011;18782;48.984;8.548;2022-09-01T15:15:19;2.00;;;1.20;;
32297;SDS011;18782;48.984;8.548;2022-09-01T15:17:47;2.83;;;1.70;;
32297;SDS011;18782;48.984;8.548;2022-09-01T15:20:17;2.42;;;2.15;;
32297;SDS011;18782;48.984;8.548;2022-09-01T15:23:03;2.25;;;1.75;;
32297;SDS011;18782;48.984;8.548;2022-09-01T15:25:30;1.45;;;1.33;;
32297;SDS011;18782;48.984;8.548;2022-09-01T15:27:58;3.25;;;1.65;;
32297;SDS011;18782;48.984;8.548;2022-09-01T15:30:26;2.50;;;2.22;;
32297;SDS011;18782;48.984;8.548;2022-09-01T15:32:54;1.30;;;1.13;;
32297;SDS011;18782;48.984;8.548;2022-09-01T15:35:23;3.15;;;1.30;;
32297;SDS011;18782;48.984;8.548;2022-09-01T15:37:50;2.70;;;1.40;;
32297;SDS011;18782;48.984;8.548;2022-09-01T15:40:18;1.33;;;1.20;;
32297;SDS011;18782;48.984;8.548;2022-09-01T15:42:46;1.40;;;1.30;;
32297;SDS011;18782;48.984;8.548;2022-09-01T15:45:16;1.60;;;1.15;;
32297;SDS011;18782;48.984;8.548;2022-09-01T15:47:45;1.58;;;1.30;;
32297;SDS011;18782;48.984;8.548;2022-09-01T15:50:15;5.32;;;1.30;;
32297;SDS011;18782;48.984;8.548;2022-09-01T15:52:50;1.45;;;1.30;;